createdAt,value
2024-03-01T00:00:23.293Z,101385.00
2024-03-01T00:03:16.015Z,101379.81
2024-03-01T00:06:08.747Z,101377.22
2024-03-01T00:09:01.298Z,101385.06
2024-03-01T00:11:54.116Z,101372.06
2024-03-01T00:14:46.961Z,101377.25
2024-03-01T00:17:39.687Z,101373.84
2024-03-01T00:20:32.609Z,101370.41
2024-03-01T00:23:27.841Z,101362.53
2024-03-01T00:26:21.156Z,101358.22
2024-03-01T00:29:14.199Z,101359.91
2024-03-01T00:32:07.179Z,101354.72
2024-03-01T00:34:59.965Z,101350.41
2024-03-01T00:37:53.500Z,101353.06
2024-03-01T00:40:45.783Z,101346.91
2024-03-01T00:43:39.360Z,101341.81
2024-03-01T00:46:31.677Z,101339.19
2024-03-01T00:49:24.085Z,101336.63
2024-03-01T00:52:16.871Z,101332.25
2024-03-01T00:55:08.971Z,101330.47
2024-03-01T00:58:01.384Z,101324.41
2024-03-01T01:00:53.920Z,101324.41
2024-03-01T01:03:46.124Z,101314.94
2024-03-01T01:06:38.892Z,101313.97
2024-03-01T01:09:30.773Z,101295.78
2024-03-01T01:12:22.945Z,101312.25
2024-03-01T01:15:15.064Z,101315.75
2024-03-01T01:18:07.960Z,101310.50
2024-03-01T01:21:00.085Z,101315.81
2024-03-01T01:23:53.210Z,101307.13
2024-03-01T01:26:45.883Z,101309.66
2024-03-01T01:29:38.085Z,101307.03
2024-03-01T01:32:29.963Z,101307.09
2024-03-01T01:35:22.066Z,101307.09
2024-03-01T01:38:14.045Z,101296.69
2024-03-01T01:41:07.125Z,101293.22
2024-03-01T01:44:00.173Z,101288.00
2024-03-01T01:46:53.563Z,101288.88
2024-03-01T01:49:46.473Z,101288.84
2024-03-01T01:52:39.704Z,101285.41
2024-03-01T01:55:33.446Z,101272.38
2024-03-01T01:58:26.254Z,101273.22
2024-03-01T02:01:19.968Z,101272.41
2024-03-01T02:04:11.964Z,101257.66
2024-03-01T02:07:05.629Z,101258.56
2024-03-01T02:09:58.120Z,101248.13
2024-03-01T02:12:57.306Z,101257.66
2024-03-01T02:15:50.218Z,101255.06
2024-03-01T02:18:42.876Z,101243.84
2024-03-01T02:21:37.652Z,101246.50
2024-03-01T02:24:30.184Z,101228.31
2024-03-01T02:27:22.116Z,101230.03
2024-03-01T02:30:15.360Z,101227.41
2024-03-01T02:33:08.382Z,101219.63
2024-03-01T02:36:01.305Z,101218.75
2024-03-01T02:38:54.193Z,101211.81
2024-03-01T02:41:50.315Z,101216.19
2024-03-01T02:44:43.360Z,101207.50
2024-03-01T02:47:36.505Z,101206.63
2024-03-01T02:50:29.331Z,101202.31
2024-03-01T02:53:22.284Z,101202.34
2024-03-01T02:56:15.237Z,101201.44
2024-03-01T02:59:06.991Z,101198.84
2024-03-01T03:02:00.065Z,101192.78
2024-03-01T03:04:54.488Z,101191.03
2024-03-01T03:07:48.408Z,101185.88
2024-03-01T03:10:41.605Z,101187.59
2024-03-01T03:13:34.471Z,101187.63
2024-03-01T03:16:27.230Z,101190.19
2024-03-01T03:19:20.342Z,101191.97
2024-03-01T03:22:13.057Z,101191.91
2024-03-01T03:25:06.337Z,101176.34
2024-03-01T03:27:59.062Z,101182.41
2024-03-01T03:30:50.956Z,101185.03
2024-03-01T03:33:43.188Z,101178.09
2024-03-01T03:36:35.218Z,101182.41
2024-03-01T03:39:27.101Z,101184.13
2024-03-01T03:42:19.107Z,101185.03
2024-03-01T03:45:12.081Z,101186.72
2024-03-01T03:48:05.824Z,101189.31
2024-03-01T03:50:58.429Z,101186.72
2024-03-01T03:53:51.307Z,101170.22
2024-03-01T03:56:46.352Z,101176.31
2024-03-01T03:59:38.318Z,101177.19
2024-03-01T04:02:30.794Z,101184.94
2024-03-01T04:05:23.193Z,101189.28
2024-03-01T04:08:15.353Z,101181.47
2024-03-01T04:11:08.112Z,101171.94
2024-03-01T04:14:00.314Z,101178.81
2024-03-01T04:16:52.380Z,101180.63
2024-03-01T04:19:44.263Z,101176.31
2024-03-01T04:22:36.421Z,101167.66
2024-03-01T04:25:29.516Z,101153.81
2024-03-01T04:28:23.373Z,101157.28
2024-03-01T04:31:16.552Z,101155.53
2024-03-01T04:34:09.554Z,101158.13
2024-03-01T04:37:02.636Z,101152.91
2024-03-01T04:39:55.733Z,101154.69
2024-03-01T04:42:48.640Z,101150.31
2024-03-01T04:45:41.298Z,101152.03
2024-03-01T04:48:33.517Z,101152.84
2024-03-01T04:51:26.597Z,101168.47
2024-03-01T04:54:19.269Z,101152.91
2024-03-01T04:57:11.573Z,101158.97
2024-03-01T05:00:13.278Z,101158.97
2024-03-01T05:03:08.882Z,101151.16
2024-03-01T05:06:04.503Z,101151.09
2024-03-01T05:08:57.868Z,101152.88
2024-03-01T05:11:50.610Z,101147.69
2024-03-01T05:14:43.769Z,101162.47
2024-03-01T05:17:40.287Z,101152.03
2024-03-01T05:20:32.363Z,101159.88
2024-03-01T05:23:24.426Z,101156.41
2024-03-01T05:26:16.824Z,101150.38
2024-03-01T05:29:09.517Z,101141.69
2024-03-01T05:32:01.654Z,101146.91
2024-03-01T05:34:54.465Z,101145.16
2024-03-01T05:37:47.332Z,101152.06
2024-03-01T05:40:46.734Z,101152.91
2024-03-01T05:43:44.778Z,101156.44
2024-03-01T05:46:37.676Z,101155.59
2024-03-01T05:49:30.556Z,101153.81
2024-03-01T05:52:22.629Z,101154.72
2024-03-01T05:55:14.625Z,101157.31
2024-03-01T05:58:07.493Z,101154.72
2024-03-01T06:01:00.876Z,101151.22
2024-03-01T06:03:53.554Z,101159.00
2024-03-01T06:06:45.670Z,101161.63
2024-03-01T06:09:39.422Z,101155.59
2024-03-01T06:12:31.539Z,101159.03
2024-03-01T06:15:23.374Z,101165.97
2024-03-01T06:18:15.627Z,101152.09
2024-03-01T06:21:07.527Z,101142.56
2024-03-01T06:23:59.774Z,101146.03
2024-03-01T06:26:55.754Z,101146.03
2024-03-01T06:29:50.044Z,101154.69
2024-03-01T06:32:44.492Z,101145.19
2024-03-01T06:35:37.062Z,101152.13
2024-03-01T06:38:29.571Z,101154.72
2024-03-01T06:41:21.669Z,101138.25
2024-03-01T06:44:15.099Z,101147.81
2024-03-01T06:47:14.878Z,101142.56
2024-03-01T06:50:10.264Z,101147.75
2024-03-01T06:53:02.984Z,101157.34
2024-03-01T06:55:56.372Z,101155.56
2024-03-01T06:58:49.406Z,101158.22
2024-03-01T07:01:41.771Z,101148.66
2024-03-01T07:04:33.840Z,101145.19
2024-03-01T07:07:26.541Z,101156.47
2024-03-01T07:10:18.794Z,101159.94
2024-03-01T07:13:11.567Z,101147.81
2024-03-01T07:16:03.861Z,101166.03
2024-03-01T07:18:56.829Z,101147.81
2024-03-01T07:21:49.842Z,101151.25
2024-03-01T07:24:42.006Z,101144.34
2024-03-01T07:27:35.510Z,101135.69
2024-03-01T07:30:28.218Z,101120.94
2024-03-01T07:33:21.507Z,101139.19
2024-03-01T07:36:14.054Z,101147.84
2024-03-01T07:39:06.878Z,101143.50
2024-03-01T07:42:00.327Z,101147.84
2024-03-01T07:44:57.030Z,101154.75
2024-03-01T07:47:49.908Z,101155.63
2024-03-01T07:50:43.048Z,101147.88
2024-03-01T07:53:35.923Z,101153.91
2024-03-01T07:56:28.774Z,101152.16
2024-03-01T07:59:20.746Z,101155.66
2024-03-01T08:02:13.058Z,101144.38
2024-03-01T08:05:07.741Z,101145.25
2024-03-01T08:07:59.844Z,101147.00
2024-03-01T08:10:51.782Z,101148.75
2024-03-01T08:13:43.730Z,101146.13
2024-03-01T08:16:36.282Z,101148.75
2024-03-01T08:19:37.620Z,101150.50
2024-03-01T08:22:30.055Z,101149.59
2024-03-01T08:25:22.968Z,101143.53
2024-03-01T08:28:27.326Z,101147.88
2024-03-01T08:31:29.705Z,101145.28
2024-03-01T08:34:25.785Z,101138.31
2024-03-01T08:37:25.452Z,101146.97
2024-03-01T08:40:53.105Z,101141.78
2024-03-01T08:43:45.886Z,101143.50
2024-03-01T08:46:38.017Z,101136.53
2024-03-01T08:49:54.686Z,101139.13
2024-03-01T08:52:49.101Z,101112.22
2024-03-01T08:55:45.147Z,101113.06
2024-03-01T08:58:39.403Z,101109.56
2024-03-01T09:01:47.385Z,101113.00
2024-03-01T09:04:39.952Z,101103.41
2024-03-01T09:07:33.177Z,101100.78
2024-03-01T09:10:30.560Z,101103.38
2024-03-01T09:13:26.229Z,101100.69
2024-03-01T09:16:20.619Z,101087.59
2024-03-01T09:19:23.014Z,101096.19
2024-03-01T09:22:17.641Z,101099.53
2024-03-01T09:25:47.586Z,101097.75
2024-03-01T09:28:40.156Z,101092.47
2024-03-01T09:31:34.320Z,101083.78
2024-03-01T09:34:35.627Z,101084.56
2024-03-01T09:37:28.432Z,101081.00
2024-03-01T09:40:39.361Z,101078.38
2024-03-01T09:44:03.732Z,101083.53
2024-03-01T09:47:39.140Z,101085.16
2024-03-01T09:50:55.649Z,101085.81
2024-03-01T09:54:03.265Z,101069.91
2024-03-01T09:57:18.753Z,101072.47
2024-03-01T10:00:24.018Z,101068.81
2024-03-01T10:03:34.528Z,101063.41
2024-03-01T10:07:13.414Z,101060.81
2024-03-01T10:10:27.300Z,101057.13
2024-03-01T10:13:44.379Z,101050.00
2024-03-01T10:17:14.283Z,101045.69
2024-03-01T10:20:22.678Z,101037.00
2024-03-01T10:23:40.117Z,101034.38
2024-03-01T10:26:34.802Z,101026.56
2024-03-01T10:29:45.948Z,101030.13
2024-03-01T10:32:54.674Z,101026.66
2024-03-01T10:36:26.347Z,101031.06
2024-03-01T10:39:31.187Z,101013.59
2024-03-01T10:42:27.457Z,101014.25
2024-03-01T10:46:01.594Z,101003.56
2024-03-01T10:48:59.946Z,100998.81
2024-03-01T10:52:12.038Z,101000.31
2024-03-01T10:55:11.753Z,101005.97
2024-03-01T10:58:46.194Z,100987.13
2024-03-01T11:02:02.092Z,100984.25
2024-03-01T11:05:08.100Z,100972.63
2024-03-01T11:08:38.597Z,100969.97
2024-03-01T11:11:49.706Z,100978.28
2024-03-01T11:14:53.441Z,100963.25
2024-03-01T11:17:51.376Z,100970.09
2024-03-01T11:20:54.372Z,100962.94
2024-03-01T11:24:00.701Z,100961.91
2024-03-01T11:26:56.992Z,100962.63
2024-03-01T11:30:00.708Z,100958.19
2024-03-01T11:33:02.347Z,100953.66
2024-03-01T11:36:35.623Z,100963.09
2024-03-01T11:39:57.704Z,100946.66
2024-03-01T11:43:12.432Z,100948.25
2024-03-01T11:46:27.697Z,100933.31
2024-03-01T11:49:35.005Z,100935.19
2024-03-01T11:53:10.672Z,100928.44
2024-03-01T11:56:20.596Z,100916.13
2024-03-01T11:59:49.487Z,100919.66
2024-03-01T12:03:09.426Z,100917.06
2024-03-01T12:06:07.041Z,100924.72
2024-03-01T12:09:17.554Z,100925.59
2024-03-01T12:12:45.818Z,100924.59
2024-03-01T12:16:13.296Z,100926.25
2024-03-01T12:19:21.002Z,100936.66
2024-03-01T12:22:48.792Z,100941.06
2024-03-01T12:25:41.651Z,100936.56
2024-03-01T12:29:30.495Z,100931.38
2024-03-01T12:33:07.484Z,100927.59
2024-03-01T12:36:22.934Z,100933.63
2024-03-01T12:39:22.016Z,100930.06
2024-03-01T12:42:34.602Z,100928.94
2024-03-01T12:46:26.306Z,100927.13
2024-03-01T12:50:06.694Z,100911.59
2024-03-01T12:53:33.148Z,100916.72
2024-03-01T12:56:49.197Z,100915.00
2024-03-01T13:00:16.841Z,100929.03
2024-03-01T13:03:39.719Z,100927.16
2024-03-01T13:06:35.105Z,100918.28
2024-03-01T13:09:35.212Z,100919.13
2024-03-01T13:12:29.158Z,100920.19
2024-03-01T13:15:26.768Z,100914.19
2024-03-01T13:18:32.101Z,100916.78
2024-03-01T13:21:59.751Z,100911.69
2024-03-01T13:25:01.144Z,100923.00
2024-03-01T13:28:03.286Z,100918.91
2024-03-01T13:31:06.434Z,100912.81
2024-03-01T13:34:00.624Z,100911.09
2024-03-01T13:37:36.398Z,100913.50
2024-03-01T13:40:41.689Z,100905.59
2024-03-01T13:43:38.760Z,100913.66
2024-03-01T13:46:40.923Z,100914.59
2024-03-01T13:49:41.436Z,100914.72
2024-03-01T13:52:40.588Z,100908.69
2024-03-01T13:55:38.688Z,100914.06
2024-03-01T13:58:33.834Z,100912.56
2024-03-01T14:01:28.849Z,100897.97
2024-03-01T14:04:21.841Z,100905.88
2024-03-01T14:07:16.483Z,100892.00
2024-03-01T14:10:10.116Z,100892.94
2024-03-01T14:13:04.750Z,100896.53
2024-03-01T14:16:08.647Z,100894.03
2024-03-01T14:19:01.780Z,100894.13
2024-03-01T14:21:55.017Z,100889.94
2024-03-01T14:24:47.589Z,100881.22
2024-03-01T14:27:40.982Z,100869.16
2024-03-01T14:30:33.993Z,100880.59
2024-03-01T14:33:28.388Z,100877.44
2024-03-01T14:36:20.746Z,100880.88
2024-03-01T14:39:15.216Z,100879.31
2024-03-01T14:42:22.746Z,100891.53
2024-03-01T14:45:15.317Z,100888.06
2024-03-01T14:48:10.153Z,100894.34
2024-03-01T14:51:11.017Z,100896.19
2024-03-01T14:54:03.539Z,100901.72
2024-03-01T14:56:56.296Z,100898.28
2024-03-01T14:59:48.732Z,100901.03
2024-03-01T15:02:41.373Z,100904.75
2024-03-01T15:05:36.646Z,100903.09
2024-03-01T15:08:32.810Z,100906.53
2024-03-01T15:11:28.428Z,100914.47
2024-03-01T15:14:24.988Z,100891.16
2024-03-01T15:17:20.001Z,100898.19
2024-03-01T15:20:13.321Z,100893.22
2024-03-01T15:23:07.038Z,100894.06
2024-03-01T15:26:07.604Z,100881.19
2024-03-01T15:28:59.891Z,100888.25
2024-03-01T15:31:53.451Z,100892.00
2024-03-01T15:34:45.935Z,100898.00
2024-03-01T15:37:40.115Z,100904.25
2024-03-01T15:40:36.850Z,100912.31
2024-03-01T15:43:28.921Z,100914.97
2024-03-01T15:46:26.824Z,100919.47
2024-03-01T15:49:18.912Z,100910.84
2024-03-01T15:52:10.976Z,100911.84
2024-03-01T15:55:06.784Z,100919.69
2024-03-01T15:57:59.174Z,100907.56
2024-03-01T16:00:51.968Z,100912.91
2024-03-01T16:03:45.573Z,100906.03
2024-03-01T16:06:39.263Z,100909.63
2024-03-01T16:09:39.776Z,100907.97
2024-03-01T16:12:31.581Z,100921.09
2024-03-01T16:15:26.099Z,100915.94
2024-03-01T16:18:19.385Z,100924.72
2024-03-01T16:21:12.766Z,100914.34
2024-03-01T16:24:07.019Z,100914.41
2024-03-01T16:27:01.257Z,100911.84
2024-03-01T16:29:53.943Z,100918.03
2024-03-01T16:32:46.937Z,100908.50
2024-03-01T16:35:43.990Z,100923.38
2024-03-01T16:38:42.293Z,100921.63
2024-03-01T16:41:40.573Z,100915.53
2024-03-01T16:44:40.654Z,100912.09
2024-03-01T16:47:36.524Z,100914.81
2024-03-01T16:50:29.619Z,100908.75
2024-03-01T16:53:21.785Z,100921.00
2024-03-01T16:56:14.303Z,100927.13
2024-03-01T16:59:08.693Z,100922.88
2024-03-01T17:02:01.904Z,100935.88
2024-03-01T17:04:54.824Z,100941.13
2024-03-01T17:07:49.527Z,100939.44
2024-03-01T17:10:43.015Z,100949.91
2024-03-01T17:13:35.924Z,100936.06
2024-03-01T17:16:33.450Z,100942.16
2024-03-01T17:19:26.278Z,100942.22
2024-03-01T17:22:19.551Z,100939.59
2024-03-01T17:25:12.155Z,100933.56
2024-03-01T17:28:05.333Z,100938.78
2024-03-01T17:30:57.763Z,100939.69
2024-03-01T17:33:50.465Z,100942.25
2024-03-01T17:36:43.039Z,100941.44
2024-03-01T17:39:35.011Z,100935.41
2024-03-01T17:42:27.038Z,100938.91
2024-03-01T17:45:20.292Z,100942.38
2024-03-01T17:48:13.404Z,100941.53
2024-03-01T17:51:06.511Z,100946.78
2024-03-01T17:54:00.818Z,100947.72
2024-03-01T17:56:53.063Z,100950.34
2024-03-01T17:59:45.046Z,100958.22
2024-03-01T18:02:37.233Z,100966.91
2024-03-01T18:05:29.447Z,100959.97
2024-03-01T18:08:22.414Z,100967.78
2024-03-01T18:11:15.235Z,100975.59
2024-03-01T18:14:09.043Z,100979.13
2024-03-01T18:17:01.164Z,100985.22
2024-03-01T18:19:58.356Z,100986.97
2024-03-01T18:22:51.432Z,100985.28
2024-03-01T18:25:44.423Z,100979.19
2024-03-01T18:28:38.432Z,100989.63
2024-03-01T18:31:31.327Z,100992.28
2024-03-01T18:34:24.763Z,100990.56
2024-03-01T18:37:18.454Z,100987.97
2024-03-01T18:40:11.272Z,100990.56
2024-03-01T18:43:03.280Z,100989.72
2024-03-01T18:45:55.066Z,100997.53
2024-03-01T18:48:47.271Z,100997.53
2024-03-01T18:51:39.607Z,100987.97
2024-03-01T18:54:34.048Z,100992.34
2024-03-01T18:57:25.973Z,100989.75
2024-03-01T19:00:18.827Z,100989.72
2024-03-01T19:03:12.145Z,100992.38
2024-03-01T19:06:04.695Z,100997.56
2024-03-01T19:08:57.225Z,100997.53
2024-03-01T19:11:52.090Z,100995.84
2024-03-01T19:14:44.377Z,100985.41
2024-03-01T19:17:38.020Z,100995.81
2024-03-01T19:20:31.249Z,100982.84
2024-03-01T19:23:23.270Z,100983.69
2024-03-01T19:26:16.353Z,100977.63
2024-03-01T19:29:09.655Z,100978.50
2024-03-01T19:32:02.903Z,100983.75
2024-03-01T19:34:55.202Z,100974.22
2024-03-01T19:37:48.113Z,100981.97
2024-03-01T19:40:40.488Z,100968.97
2024-03-01T19:43:33.539Z,100975.03
2024-03-01T19:46:26.388Z,100973.31
2024-03-01T19:49:20.094Z,100972.44
2024-03-01T19:52:15.628Z,100964.66
2024-03-01T19:55:08.608Z,100976.81
2024-03-01T19:58:01.284Z,100975.94
2024-03-01T20:00:53.348Z,100979.44
2024-03-01T20:03:45.622Z,100978.53
2024-03-01T20:06:38.561Z,100976.78
2024-03-01T20:09:31.932Z,100986.38
2024-03-01T20:12:24.321Z,100971.63
2024-03-01T20:15:16.882Z,100989.00
2024-03-01T20:18:09.499Z,100987.28
2024-03-01T20:21:06.705Z,100990.72
2024-03-01T20:23:59.779Z,100984.69
2024-03-01T20:26:53.295Z,100992.44
2024-03-01T20:29:45.675Z,100987.25
2024-03-01T20:32:38.437Z,100997.69
2024-03-01T20:35:30.416Z,100993.31
2024-03-01T20:38:22.579Z,100989.03
2024-03-01T20:41:15.297Z,101000.31
2024-03-01T20:44:07.322Z,100995.97
2024-03-01T20:46:59.539Z,101001.16
2024-03-01T20:49:51.342Z,100995.97
2024-03-01T20:52:43.687Z,101004.66
2024-03-01T20:55:38.990Z,101004.66
2024-03-01T20:58:31.666Z,101007.25
2024-03-01T21:01:24.435Z,101010.72
2024-03-01T21:04:16.661Z,101020.31
2024-03-01T21:07:09.588Z,101012.47
2024-03-01T21:10:07.000Z,101013.31
2024-03-01T21:12:59.644Z,101017.66
2024-03-01T21:15:51.627Z,101021.16
2024-03-01T21:18:43.553Z,101029.84
2024-03-01T21:24:32.549Z,101031.59
2024-03-01T21:27:24.834Z,101032.47
2024-03-01T21:30:18.607Z,101036.78
2024-03-01T21:33:10.713Z,101033.34
2024-03-01T21:36:04.046Z,101035.91
2024-03-01T21:38:56.592Z,101023.81
2024-03-01T21:41:48.582Z,101024.69
2024-03-01T21:44:43.811Z,101026.41
2024-03-01T21:47:36.814Z,101016.88
2024-03-01T21:50:29.764Z,101022.94
2024-03-01T21:53:22.305Z,101016.88
2024-03-01T21:56:14.777Z,101030.75
2024-03-01T21:59:07.933Z,101019.47
2024-03-01T22:02:02.483Z,101022.94
2024-03-01T22:04:59.690Z,101022.94
2024-03-01T22:08:02.371Z,101028.16
2024-03-01T22:10:59.609Z,101025.53
2024-03-01T22:13:51.641Z,101021.19
2024-03-01T22:16:43.692Z,101014.25
2024-03-01T22:19:35.738Z,101023.78
2024-03-01T22:22:28.536Z,101013.41
2024-03-01T22:25:20.874Z,101008.22
2024-03-01T22:28:14.998Z,101017.72
2024-03-01T22:31:07.696Z,101004.75
2024-03-01T22:34:00.217Z,101008.22
2024-03-01T22:36:53.301Z,101009.06
2024-03-01T22:39:50.065Z,101017.75
2024-03-01T22:42:45.653Z,101009.94
2024-03-01T22:45:37.986Z,101014.25
2024-03-01T22:48:32.150Z,101016.88
2024-03-01T22:51:24.962Z,101021.22
2024-03-01T22:54:25.250Z,101017.75
2024-03-01T22:57:26.659Z,101024.69
2024-03-01T23:00:20.711Z,101011.66
2024-03-01T23:03:18.615Z,101018.63
2024-03-01T23:06:16.682Z,101009.06
2024-03-01T23:09:19.035Z,101017.72
2024-03-01T23:12:12.716Z,101007.34
2024-03-01T23:15:05.589Z,101013.41
2024-03-01T23:17:57.846Z,101013.38
2024-03-01T23:20:50.383Z,101019.47
2024-03-01T23:23:43.381Z,101026.38
2024-03-01T23:26:35.718Z,101021.19
2024-03-01T23:29:27.567Z,101029.00
2024-03-01T23:32:19.637Z,101024.69
2024-03-01T23:35:11.716Z,101027.28
2024-03-01T23:38:04.024Z,101029.88
2024-03-01T23:40:57.382Z,101035.97
2024-03-01T23:43:50.089Z,101027.25
2024-03-01T23:46:43.077Z,101025.53
2024-03-01T23:49:35.805Z,101032.50
2024-03-01T23:52:28.739Z,101029.88
2024-03-01T23:55:22.295Z,101022.94
2024-03-01T23:58:15.177Z,101016.00
